Time;durP1;ratioP1;P1;durP2;ratioP2;P2;SDS_P1;SDS_P2;PMS_P1;PMS_P2;Temp;Humidity;BMP_temperature;BMP_pressure;BME280_temperature;BME280_humidity;BME280_pressure;Samples;Min_cycle;Max_cycle;Signal;HPM_P1;HPM_P2
2022/07/21 00:01:30;;;;;;;1.48;0.70;;;21.50;99.90;;;;;;4993096;28;20483;-68
2022/07/21 00:03:55;;;;;;;2.80;1.20;;;21.60;99.90;;;;;;4992673;28;20041;-68
2022/07/21 00:06:21;;;;;;;5.15;1.85;;;21.50;99.90;;;;;;4992689;28;20031;-67
2022/07/21 00:08:47;;;;;;;2.08;1.40;;;21.50;99.90;;;;;;4992566;28;20583;-68
2022/07/21 00:11:13;;;;;;;1.83;0.93;;;21.40;99.90;;;;;;4993111;28;20458;-68
2022/07/21 00:13:39;;;;;;;5.28;1.85;;;21.30;99.90;;;;;;4992459;28;20459;-67
2022/07/21 00:16:05;;;;;;;1.10;0.85;;;21.30;99.90;;;;;;4992559;28;20084;-67
2022/07/21 00:18:31;;;;;;;2.55;2.22;;;21.30;99.90;;;;;;4991264;28;20027;-68
2022/07/21 00:20:59;;;;;;;0.63;0.63;;;21.20;99.90;;;;;;4992148;28;20041;-67
2022/07/21 00:23:26;;;;;;;1.13;1.02;;;21.20;99.90;;;;;;4992239;28;20057;-68
2022/07/21 00:25:52;;;;;;;1.00;0.88;;;21.30;99.90;;;;;;4992580;28;20046;-70
2022/07/21 00:28:19;;;;;;;0.38;0.28;;;21.30;99.90;;;;;;4991392;28;20038;-70
2022/07/21 00:30:46;;;;;;;2.83;1.15;;;21.30;99.90;;;;;;4990925;28;20092;-67
2022/07/21 00:33:11;;;;;;;6.40;1.30;;;21.20;99.90;;;;;;4990874;28;20490;-68
2022/07/21 00:35:38;;;;;;;0.77;0.77;;;21.30;99.90;;;;;;4990819;28;20037;-69
2022/07/21 00:38:04;;;;;;;1.58;0.98;;;21.30;99.90;;;;;;4992312;28;20556;-68
2022/07/21 00:40:30;;;;;;;1.25;1.15;;;21.20;99.90;;;;;;4991966;28;20065;-67
2022/07/21 00:42:57;;;;;;;1.20;1.10;;;21.20;99.90;;;;;;4990696;28;20082;-67
2022/07/21 00:45:23;;;;;;;2.08;1.10;;;21.20;99.90;;;;;;4991055;28;20066;-68
2022/07/21 00:47:49;;;;;;;0.90;0.88;;;21.10;99.90;;;;;;4992271;28;20062;-68
2022/07/21 00:50:19;;;;;;;0.60;0.60;;;21.10;99.90;;;;;;4991828;28;20058;-68
2022/07/21 00:52:47;;;;;;;0.88;0.88;;;21.00;99.90;;;;;;4990940;28;20038;-67
2022/07/21 00:55:18;;;;;;;1.10;0.60;;;20.90;99.90;;;;;;4992348;28;20035;-67
2022/07/21 00:57:45;;;;;;;1.00;0.85;;;20.90;99.90;;;;;;4992044;28;20049;-67
2022/07/21 01:00:25;;;;;;;1.23;1.13;;;20.80;99.90;;;;;;4991645;28;20386;-68
2022/07/21 01:02:51;;;;;;;2.17;1.65;;;20.80;99.90;;;;;;4991432;28;20077;-68
2022/07/21 01:05:18;;;;;;;3.05;2.25;;;20.70;99.90;;;;;;4978613;28;20055;-68
2022/07/21 01:07:48;;;;;;;0.73;0.73;;;20.70;99.90;;;;;;4974055;28;20618;-68
2022/07/21 01:10:15;;;;;;;0.60;0.60;;;20.60;99.90;;;;;;4973913;28;20034;-68
2022/07/21 01:12:42;;;;;;;1.00;0.93;;;20.80;99.90;;;;;;4989171;28;20034;-68
2022/07/21 01:15:12;;;;;;;0.63;0.63;;;20.70;99.90;;;;;;4987825;28;20517;-68
2022/07/21 01:17:38;;;;;;;0.85;0.75;;;20.60;99.90;;;;;;4972358;28;20034;-67
2022/07/21 01:20:09;;;;;;;1.30;1.20;;;20.60;99.90;;;;;;4970394;28;20387;-67
2022/07/21 01:22:38;;;;;;;2.13;1.50;;;20.60;99.90;;;;;;4971954;28;20046;-67
2022/07/21 01:25:06;;;;;;;0.30;0.30;;;20.70;99.90;;;;;;4986812;28;20113;-67
2022/07/21 01:27:31;;;;;;;1.17;1.05;;;20.70;99.90;;;;;;4991799;28;20057;-68
2022/07/21 01:29:58;;;;;;;0.65;0.65;;;20.50;99.90;;;;;;4989345;28;20088;-67
2022/07/21 01:32:24;;;;;;;0.88;0.88;;;20.50;99.90;;;;;;5006226;28;20026;-67
2022/07/21 01:34:51;;;;;;;0.75;0.63;;;20.50;99.90;;;;;;4991459;28;20030;-67
2022/07/21 01:37:26;;;;;;;2.55;1.17;;;20.60;99.90;;;;;;4991775;28;20030;-67
2022/07/21 01:42:37;;;;;;;0.25;0.25;;;20.60;99.90;;;;;;4972326;28;20085;-67
2022/07/21 01:45:05;;;;;;;1.25;1.17;;;20.60;99.90;;;;;;4972391;28;20030;-68
2022/07/21 01:47:31;;;;;;;0.73;0.70;;;20.70;99.90;;;;;;4970737;28;20027;-68
2022/07/21 01:49:57;;;;;;;1.02;0.98;;;20.60;99.90;;;;;;4971778;28;20031;-67
2022/07/21 01:52:23;;;;;;;3.00;1.27;;;20.50;99.90;;;;;;4971391;28;20042;-67
2022/07/21 01:54:49;;;;;;;2.88;1.75;;;20.50;99.90;;;;;;4972202;28;20469;-68
2022/07/21 01:57:15;;;;;;;0.88;0.68;;;20.40;99.90;;;;;;4972004;28;20513;-68
2022/07/21 01:59:41;;;;;;;2.80;1.45;;;20.50;99.90;;;;;;4970351;28;20027;-67
2022/07/21 02:02:07;;;;;;;1.30;0.98;;;20.40;99.90;;;;;;4954349;28;20376;-67
2022/07/21 02:04:34;;;;;;;0.85;0.82;;;20.60;99.90;;;;;;4971957;28;20041;-67
2022/07/21 02:07:01;;;;;;;1.15;1.10;;;20.60;99.90;;;;;;4971880;28;20487;-67
2022/07/21 02:09:28;;;;;;;1.38;1.27;;;20.40;99.90;;;;;;4970246;28;20042;-67
2022/07/21 02:11:53;;;;;;;1.67;1.58;;;20.30;99.90;;;;;;4970801;28;20023;-68
2022/07/21 02:14:20;;;;;;;1.67;1.58;;;20.30;99.90;;;;;;4971307;28;20086;-67
2022/07/21 02:16:45;;;;;;;1.75;1.58;;;20.30;99.90;;;;;;4990948;28;20034;-68
2022/07/21 02:19:11;;;;;;;3.08;1.63;;;20.40;99.90;;;;;;4991158;28;20105;-68
2022/07/21 02:21:37;;;;;;;3.25;1.85;;;20.40;99.90;;;;;;4991415;28;20109;-68
2022/07/21 02:24:03;;;;;;;0.50;0.50;;;20.40;99.90;;;;;;4990647;28;20092;-68
2022/07/21 02:26:29;;;;;;;1.05;1.02;;;20.40;99.90;;;;;;4991211;28;20034;-68
2022/07/21 02:28:55;;;;;;;2.13;0.88;;;20.50;99.90;;;;;;4990673;28;20089;-68
2022/07/21 02:31:21;;;;;;;3.10;1.83;;;20.50;99.90;;;;;;4991001;28;20426;-69
2022/07/21 02:33:46;;;;;;;0.47;0.47;;;20.50;99.90;;;;;;4989428;28;20026;-67
2022/07/21 02:36:12;;;;;;;1.23;1.13;;;20.40;99.90;;;;;;4991199;28;20026;-68
2022/07/21 02:38:38;;;;;;;2.28;1.27;;;20.50;99.90;;;;;;4990264;28;20117;-68
2022/07/21 02:41:04;;;;;;;3.15;2.35;;;20.50;99.90;;;;;;4992502;28;20073;-68
2022/07/21 02:43:30;;;;;;;1.17;0.60;;;20.60;99.90;;;;;;4994030;28;20391;-68
2022/07/21 02:45:56;;;;;;;2.33;1.65;;;20.60;99.90;;;;;;4994700;28;20092;-68
2022/07/21 02:48:22;;;;;;;3.53;2.30;;;20.60;99.90;;;;;;4994353;28;20398;-68
2022/07/21 02:50:48;;;;;;;1.35;1.15;;;20.70;99.90;;;;;;4976554;28;20402;-68
2022/07/21 02:53:19;;;;;;;1.23;0.98;;;20.80;99.90;;;;;;4994007;28;20729;-68
2022/07/21 02:55:47;;;;;;;2.97;2.65;;;20.70;99.90;;;;;;4992935;28;20037;-69
2022/07/21 02:58:17;;;;;;;1.90;1.48;;;20.70;99.90;;;;;;4994205;28;20033;-68
2022/07/21 03:01:03;;;;;;;0.30;0.30;;;20.80;99.90;;;;;;4994004;28;20034;-68
2022/07/21 03:03:36;;;;;;;1.50;1.40;;;20.70;99.90;;;;;;4975990;28;20096;-69
2022/07/21 03:06:03;;;;;;;1.42;1.33;;;20.70;99.90;;;;;;4975379;28;20031;-68
2022/07/21 03:08:29;;;;;;;4.65;2.80;;;20.80;99.90;;;;;;4979992;28;20037;-68
2022/07/21 03:10:56;;;;;;;2.08;1.88;;;20.70;99.90;;;;;;4980566;28;20023;-68
2022/07/21 03:13:22;;;;;;;9.80;1.50;;;20.80;99.90;;;;;;4993380;28;20061;-68
2022/07/21 03:15:48;;;;;;;2.20;2.05;;;20.80;99.90;;;;;;4986941;28;20041;-68
2022/07/21 03:18:14;;;;;;;2.55;1.65;;;20.70;99.90;;;;;;4993901;28;20474;-69
2022/07/21 03:20:41;;;;;;;1.90;1.73;;;20.80;99.90;;;;;;4993084;28;20038;-68
2022/07/21 03:23:08;;;;;;;1.38;1.27;;;20.70;99.90;;;;;;5008213;28;20030;-68
2022/07/21 03:25:34;;;;;;;2.22;1.98;;;20.60;99.90;;;;;;4977473;28;20070;-69
2022/07/21 03:28:00;;;;;;;0.52;0.52;;;20.70;99.90;;;;;;4974602;28;20033;-68
2022/07/21 03:30:28;;;;;;;1.20;1.10;;;20.60;99.90;;;;;;4972354;28;20041;-68
2022/07/21 03:32:54;;;;;;;0.93;0.93;;;20.60;99.90;;;;;;4972747;28;20031;-69
2022/07/21 03:35:20;;;;;;;0.70;0.70;;;20.70;99.90;;;;;;4973856;28;20031;-69
2022/07/21 03:37:59;;;;;;;0.90;0.85;;;20.70;99.90;;;;;;4973948;28;20038;-68
2022/07/21 03:40:29;;;;;;;2.97;1.45;;;20.80;99.90;;;;;;4973250;28;20035;-68
2022/07/21 03:42:57;;;;;;;7.93;1.55;;;20.80;99.90;;;;;;4989420;28;20052;-68
2022/07/21 03:45:25;;;;;;;7.50;2.17;;;20.80;99.90;;;;;;4992112;28;20037;-68
2022/07/21 03:47:51;;;;;;;1.05;0.95;;;20.80;99.90;;;;;;4979578;28;20031;-77
2022/07/21 03:50:17;;;;;;;14.90;4.00;;;20.80;99.90;;;;;;4949575;28;20106;-72
2022/07/21 03:52:47;;;;;;;1.40;1.30;;;20.80;99.90;;;;;;4978385;28;20037;-70
2022/07/21 03:55:20;;;;;;;0.52;0.50;;;20.80;99.90;;;;;;4983468;28;20021;-70
2022/07/21 03:57:59;;;;;;;0.85;0.85;;;20.90;99.90;;;;;;4959092;28;20039;-70
2022/07/21 04:00:29;;;;;;;0.22;0.22;;;21.00;99.90;;;;;;4908149;28;20040;-70
2022/07/21 04:02:56;;;;;;;2.80;1.38;;;21.00;99.90;;;;;;4972941;28;20074;-70
2022/07/21 04:05:22;;;;;;;0.82;0.70;;;21.00;99.90;;;;;;4972866;28;20395;-70
2022/07/21 04:07:51;;;;;;;1.67;1.20;;;21.00;99.90;;;;;;4972088;28;20060;-70
2022/07/21 04:10:22;;;;;;;1.85;1.42;;;21.00;99.90;;;;;;4971402;28;20042;-70
2022/07/21 04:12:49;;;;;;;1.08;0.93;;;21.10;99.90;;;;;;4973132;28;20602;-74
2022/07/21 04:15:15;;;;;;;0.77;0.65;;;21.10;99.90;;;;;;4977116;28;20121;-73
2022/07/21 04:17:41;;;;;;;1.83;1.00;;;21.20;99.90;;;;;;4973297;28;20101;-70
2022/07/21 04:20:10;;;;;;;0.57;0.57;;;21.30;99.90;;;;;;4954780;28;20069;-69
2022/07/21 04:22:37;;;;;;;7.10;0.77;;;21.30;99.90;;;;;;4971385;28;20035;-69
2022/07/21 04:25:05;;;;;;;0.63;0.63;;;21.30;99.90;;;;;;4971455;28;20688;-74
2022/07/21 04:27:32;;;;;;;0.63;0.63;;;21.10;99.90;;;;;;4972836;28;20042;-73
2022/07/21 04:29:58;;;;;;;1.75;1.33;;;21.10;99.90;;;;;;4971074;28;20031;-74
2022/07/21 04:32:23;;;;;;;0.25;0.25;;;21.10;99.90;;;;;;4972193;28;20045;-73
2022/07/21 04:34:49;;;;;;;0.32;0.32;;;21.10;99.90;;;;;;4971155;28;20110;-74
2022/07/21 04:37:15;;;;;;;1.65;1.55;;;21.00;99.90;;;;;;4972461;28;20042;-73
2022/07/21 04:39:41;;;;;;;2.72;1.20;;;21.00;99.90;;;;;;4945698;28;20030;-73
2022/07/21 04:42:07;;;;;;;0.63;0.63;;;21.00;99.90;;;;;;4972617;28;20387;-73
2022/07/21 04:44:32;;;;;;;0.73;0.65;;;21.00;99.90;;;;;;4972585;28;20107;-70
2022/07/21 04:46:58;;;;;;;0.45;0.43;;;21.00;99.90;;;;;;4971454;28;20042;-70
2022/07/21 04:49:24;;;;;;;0.63;0.60;;;21.00;99.90;;;;;;4972221;28;20041;-70
2022/07/21 04:51:50;;;;;;;1.90;1.35;;;21.00;99.90;;;;;;4972132;28;20094;-69
2022/07/21 04:54:15;;;;;;;0.98;0.75;;;21.10;99.90;;;;;;4972366;28;20035;-70
2022/07/21 04:56:43;;;;;;;1.13;1.08;;;21.10;99.90;;;;;;4971110;28;20034;-70
2022/07/21 04:59:09;;;;;;;1.58;1.40;;;21.00;99.90;;;;;;4969964;28;20131;-70
2022/07/21 05:01:39;;;;;;;0.73;0.73;;;21.00;99.90;;;;;;4957997;28;20415;-71
2022/07/21 05:04:06;;;;;;;1.73;1.08;;;21.10;99.90;;;;;;4972964;28;20560;-70
2022/07/21 05:06:33;;;;;;;2.13;0.57;;;21.20;99.90;;;;;;4976021;28;20031;-71
2022/07/21 05:08:58;;;;;;;0.40;0.40;;;21.10;99.90;;;;;;4970921;28;20033;-68
2022/07/21 05:11:25;;;;;;;8.75;1.00;;;21.20;99.90;;;;;;4971765;28;20391;-69
2022/07/21 05:13:51;;;;;;;1.98;1.65;;;21.30;99.90;;;;;;4971919;28;20386;-68
2022/07/21 05:16:17;;;;;;;0.98;0.90;;;21.40;99.90;;;;;;4974731;28;20594;-68
2022/07/21 05:18:43;;;;;;;1.77;0.90;;;21.50;99.90;;;;;;4971583;28;20046;-68
2022/07/21 05:21:09;;;;;;;0.60;0.60;;;21.50;99.90;;;;;;4971731;28;20030;-67
2022/07/21 05:23:35;;;;;;;1.20;0.75;;;21.40;99.90;;;;;;4971088;28;20085;-68
2022/07/21 05:26:00;;;;;;;0.40;0.40;;;21.40;99.90;;;;;;4971924;28;20030;-68
2022/07/21 05:28:30;;;;;;;2.20;1.90;;;21.30;99.90;;;;;;4971574;28;20031;-68
2022/07/21 05:30:56;;;;;;;7.57;1.20;;;21.30;99.90;;;;;;4971680;28;20042;-68
2022/07/21 05:33:22;;;;;;;0.40;0.22;;;21.20;99.90;;;;;;4971514;28;20526;-69
2022/07/21 05:35:47;;;;;;;1.80;0.73;;;21.00;99.90;;;;;;4971668;28;20073;-67
2022/07/21 05:38:13;;;;;;;2.03;1.73;;;20.90;99.90;;;;;;4971882;28;20042;-67
2022/07/21 05:40:39;;;;;;;0.73;0.73;;;21.00;99.90;;;;;;4971347;28;20487;-68
2022/07/21 05:43:05;;;;;;;1.38;0.93;;;21.00;99.90;;;;;;4971426;28;20038;-68
2022/07/21 05:45:31;;;;;;;1.75;1.17;;;21.00;99.90;;;;;;4968726;28;20026;-68
2022/07/21 05:47:56;;;;;;;1.73;1.50;;;21.10;99.90;;;;;;4966590;28;20023;-69
2022/07/21 05:50:22;;;;;;;9.40;4.22;;;21.20;99.90;;;;;;4969946;28;20031;-69
2022/07/21 05:52:48;;;;;;;2.55;2.03;;;21.10;99.90;;;;;;4971105;28;20031;-68
2022/07/21 05:55:13;;;;;;;1.90;1.70;;;21.10;99.90;;;;;;4971699;28;20476;-69
2022/07/21 05:57:39;;;;;;;0.55;0.55;;;21.30;99.90;;;;;;4970811;28;20027;-69
2022/07/21 06:00:07;;;;;;;0.52;0.52;;;21.20;99.90;;;;;;4971425;28;20038;-70
2022/07/21 06:02:32;;;;;;;0.20;0.20;;;21.00;99.90;;;;;;4957491;28;20036;-70
2022/07/21 06:04:59;;;;;;;1.15;1.05;;;21.00;99.90;;;;;;4952005;29;20391;-70
2022/07/21 06:07:25;;;;;;;4.03;1.85;;;21.10;99.90;;;;;;4951328;29;20042;-70
2022/07/21 06:09:52;;;;;;;1.48;1.38;;;21.00;99.90;;;;;;4951673;28;20035;-70
2022/07/21 06:12:18;;;;;;;1.20;0.55;;;21.10;99.90;;;;;;4952273;29;20027;-69
2022/07/21 06:14:44;;;;;;;0.77;0.77;;;21.30;99.90;;;;;;4952230;28;20047;-78
2022/07/21 06:17:09;;;;;;;0.20;0.20;;;21.20;99.90;;;;;;4991497;28;20030;-76
2022/07/21 06:19:35;;;;;;;1.42;1.23;;;21.20;99.90;;;;;;4994159;28;20089;-77
2022/07/21 06:22:02;;;;;;;0.80;0.47;;;21.20;99.90;;;;;;4973739;28;20106;-77
2022/07/21 06:24:28;;;;;;;0.82;0.50;;;21.10;99.90;;;;;;4976649;28;20081;-78
2022/07/21 06:26:57;;;;;;;0.57;0.57;;;21.20;99.90;;;;;;4975209;28;20041;-77
2022/07/21 06:29:24;;;;;;;0.75;0.47;;;21.30;99.90;;;;;;4974910;28;20030;-78
2022/07/21 06:31:50;;;;;;;0.55;0.55;;;21.30;99.90;;;;;;4974692;28;20045;-78
2022/07/21 06:34:16;;;;;;;0.75;0.45;;;21.40;99.90;;;;;;4974934;28;20491;-75
2022/07/21 06:36:42;;;;;;;0.17;0.17;;;21.50;99.90;;;;;;4978435;28;20038;-77
2022/07/21 06:39:08;;;;;;;0.98;0.90;;;21.60;99.90;;;;;;4974202;28;20118;-69
2022/07/21 06:41:34;;;;;;;0.45;0.45;;;21.60;99.90;;;;;;4974877;28;20070;-73
2022/07/21 06:44:01;;;;;;;0.43;0.43;;;21.60;99.90;;;;;;4965141;28;20077;-74
2022/07/21 06:46:27;;;;;;;0.47;0.43;;;21.70;99.90;;;;;;4972179;28;20038;-75
2022/07/21 06:48:53;;;;;;;0.70;0.70;;;21.80;99.90;;;;;;4974600;28;20031;-70
2022/07/21 06:51:19;;;;;;;0.20;0.20;;;21.90;99.90;;;;;;4978109;28;20104;-67
2022/07/21 06:53:44;;;;;;;1.05;0.95;;;21.70;99.90;;;;;;4973571;28;20439;-68
2022/07/21 06:56:10;;;;;;;0.40;0.40;;;21.80;99.90;;;;;;4973632;28;20558;-68
2022/07/21 06:58:36;;;;;;;0.63;0.43;;;22.00;99.90;;;;;;4973966;28;20077;-68
2022/07/21 07:01:02;;;;;;;1.45;0.60;;;21.90;99.90;;;;;;4979123;28;20699;-68
2022/07/21 07:03:28;;;;;;;0.75;0.75;;;21.90;99.90;;;;;;4976901;28;20100;-69
2022/07/21 07:05:53;;;;;;;1.13;0.80;;;22.00;99.90;;;;;;4992000;28;20073;-68
2022/07/21 07:08:19;;;;;;;1.55;1.45;;;22.10;99.90;;;;;;4984833;28;20037;-68
2022/07/21 07:10:48;;;;;;;0.40;0.40;;;22.10;99.90;;;;;;4990710;28;20053;-68
2022/07/21 07:13:15;;;;;;;1.40;0.82;;;22.20;99.90;;;;;;4988633;28;20042;-68
2022/07/21 07:15:41;;;;;;;0.22;0.22;;;22.30;99.90;;;;;;4992458;28;20030;-69
2022/07/21 07:18:07;;;;;;;0.57;0.57;;;22.40;99.90;;;;;;4973919;28;20483;-69
2022/07/21 07:20:33;;;;;;;6.03;0.65;;;22.20;99.90;;;;;;4973840;28;20042;-69
2022/07/21 07:22:58;;;;;;;4.10;1.65;;;22.20;99.90;;;;;;4973612;28;20026;-68
2022/07/21 07:25:24;;;;;;;1.65;1.45;;;22.10;99.90;;;;;;4986062;28;20081;-65
2022/07/21 07:27:51;;;;;;;0.15;0.15;;;22.30;99.90;;;;;;4968714;28;20031;-66
2022/07/21 07:30:18;;;;;;;0.50;0.50;;;22.30;99.90;;;;;;4967135;28;20495;-66
2022/07/21 07:32:46;;;;;;;1.08;0.98;;;22.30;99.90;;;;;;4959608;28;20047;-64
2022/07/21 07:35:13;;;;;;;1.02;0.77;;;22.20;99.90;;;;;;4971802;28;20031;-65
2022/07/21 07:37:42;;;;;;;0.32;0.20;;;22.40;99.90;;;;;;4975333;28;20015;-66
2022/07/21 07:40:12;;;;;;;1.05;0.95;;;22.40;99.90;;;;;;4973406;28;20018;-65
2022/07/21 07:42:39;;;;;;;0.20;0.20;;;22.60;99.90;;;;;;4971547;28;20038;-67
2022/07/21 07:45:06;;;;;;;0.32;0.32;;;22.70;99.90;;;;;;4970144;28;20034;-65
2022/07/21 07:47:33;;;;;;;0.88;0.85;;;22.50;99.90;;;;;;4966824;28;20117;-65
2022/07/21 07:49:58;;;;;;;0.73;0.73;;;22.60;99.90;;;;;;4971488;28;20045;-66
2022/07/21 07:52:25;;;;;;;1.63;1.20;;;22.70;99.90;;;;;;4983504;28;20038;-65
2022/07/21 07:54:51;;;;;;;0.63;0.63;;;22.50;99.90;;;;;;4981448;28;20364;-65
2022/07/21 07:57:17;;;;;;;1.20;0.73;;;22.60;99.90;;;;;;4981809;28;20042;-65
2022/07/21 07:59:43;;;;;;;1.85;1.15;;;22.70;99.90;;;;;;4981777;28;20030;-65
2022/07/21 08:02:08;;;;;;;0.77;0.75;;;22.40;99.90;;;;;;4983530;28;20108;-65
2022/07/21 08:04:35;;;;;;;2.03;0.52;;;22.50;99.90;;;;;;4976792;28;20479;-65
2022/07/21 08:07:02;;;;;;;1.25;1.15;;;22.50;99.90;;;;;;4980274;28;20034;-65
2022/07/21 08:09:28;;;;;;;0.65;0.65;;;22.50;99.90;;;;;;4984520;28;20046;-65
2022/07/21 08:11:54;;;;;;;0.10;0.10;;;22.70;99.90;;;;;;4978856;28;20038;-65
2022/07/21 08:14:20;;;;;;;0.22;0.22;;;22.80;99.90;;;;;;4985317;28;20038;-67
2022/07/21 08:16:45;;;;;;;0.50;0.50;;;22.90;99.90;;;;;;4978048;28;20069;-68
2022/07/21 08:19:12;;;;;;;0.80;0.77;;;22.70;99.90;;;;;;4984664;28;20040;-68
2022/07/21 08:21:37;;;;;;;3.67;2.20;;;22.80;99.90;;;;;;4973628;28;20496;-68
2022/07/21 08:24:04;;;;;;;0.55;0.55;;;23.10;99.90;;;;;;4986489;28;20038;-67
2022/07/21 08:26:30;;;;;;;1.20;0.55;;;23.20;99.90;;;;;;4976346;28;20050;-66
2022/07/21 08:28:57;;;;;;;1.83;1.52;;;23.30;99.90;;;;;;4954730;28;20458;-66
2022/07/21 08:31:24;;;;;;;0.38;0.38;;;23.40;99.90;;;;;;4971084;28;20142;-65
2022/07/21 08:33:52;;;;;;;0.77;0.57;;;23.20;99.90;;;;;;4968055;28;20038;-65
2022/07/21 08:36:18;;;;;;;1.55;0.85;;;23.40;99.90;;;;;;4970162;28;20609;-66
2022/07/21 08:38:44;;;;;;;0.22;0.22;;;23.20;99.90;;;;;;4980137;28;20069;-67
2022/07/21 08:41:11;;;;;;;0.60;0.50;;;23.50;99.90;;;;;;4969771;28;20027;-67
2022/07/21 08:43:37;;;;;;;1.85;1.00;;;23.70;99.90;;;;;;4974636;28;20030;-67
2022/07/21 08:46:04;;;;;;;0.90;0.82;;;23.60;99.90;;;;;;4978330;28;20456;-67
2022/07/21 08:48:31;;;;;;;0.88;0.77;;;23.80;99.90;;;;;;4965382;28;20128;-67
2022/07/21 08:50:57;;;;;;;2.95;2.47;;;24.00;99.90;;;;;;4975053;28;20507;-69
2022/07/21 08:53:25;;;;;;;0.80;0.55;;;24.00;99.90;;;;;;4970592;28;20073;-69
2022/07/21 08:55:51;;;;;;;0.98;0.73;;;24.10;99.90;;;;;;4973402;28;20034;-69
2022/07/21 08:58:18;;;;;;;0.20;0.20;;;24.20;99.90;;;;;;4970429;28;20031;-69
2022/07/21 09:00:48;;;;;;;0.30;0.20;;;24.10;99.90;;;;;;4968341;28;20030;-68
2022/07/21 09:03:19;;;;;;;3.25;1.85;;;23.70;99.90;;;;;;4971638;28;20039;-69
2022/07/21 09:06:15;;;;;;;0.13;0.13;;;23.80;99.90;;;;;;4975845;28;20038;-68
2022/07/21 09:08:47;;;;;;;3.90;1.55;;;23.60;99.90;;;;;;4970898;28;20026;-69
2022/07/21 09:11:30;;;;;;;3.83;1.10;;;23.70;99.90;;;;;;4969754;28;20038;-69
2022/07/21 09:14:12;;;;;;;0.80;0.55;;;23.80;99.90;;;;;;4958204;28;20034;-69
2022/07/21 09:16:44;;;;;;;0.20;0.20;;;23.90;99.90;;;;;;4977102;28;20084;-68
2022/07/21 09:19:18;;;;;;;1.65;1.10;;;23.90;99.90;;;;;;4981640;28;20027;-66
2022/07/21 09:21:45;;;;;;;0.17;0.15;;;23.90;99.90;;;;;;4981168;28;20471;-66
2022/07/21 09:24:18;;;;;;;0.28;0.28;;;23.90;99.90;;;;;;4981525;28;20031;-67
2022/07/21 09:27:12;;;;;;;0.10;0.10;;;23.90;99.90;;;;;;4980383;28;20084;-66
2022/07/21 09:29:53;;;;;;;1.05;0.50;;;23.90;99.90;;;;;;4976317;28;20443;-65
2022/07/21 09:32:34;;;;;;;0.55;0.55;;;23.90;99.90;;;;;;4965957;28;20084;-65
2022/07/21 09:35:09;;;;;;;0.52;0.52;;;24.20;99.90;;;;;;4970948;28;20034;-66
2022/07/21 09:37:36;;;;;;;0.57;0.50;;;24.30;99.90;;;;;;4970217;28;20023;-66
2022/07/21 09:40:09;;;;;;;0.25;0.20;;;24.50;99.90;;;;;;4983341;28;20481;-66
2022/07/21 09:42:39;;;;;;;1.67;0.85;;;24.40;99.90;;;;;;4970001;28;20071;-66
2022/07/21 09:45:15;;;;;;;0.90;0.77;;;24.50;99.90;;;;;;4969212;28;20039;-66
2022/07/21 09:47:42;;;;;;;1.27;1.13;;;24.60;99.90;;;;;;4925236;28;20035;-67
2022/07/21 09:50:12;;;;;;;0.68;0.57;;;24.80;99.90;;;;;;4973163;28;20034;-67
2022/07/21 09:52:42;;;;;;;1.52;1.00;;;25.00;99.90;;;;;;4993383;28;20069;-66
2022/07/21 09:55:11;;;;;;;1.02;0.93;;;24.90;99.90;;;;;;4968582;28;20567;-65
2022/07/21 09:57:37;;;;;;;2.20;1.23;;;25.00;99.90;;;;;;4978650;28;20042;-65
2022/07/21 10:00:11;;;;;;;6.85;0.80;;;25.20;99.90;;;;;;4982177;28;20023;-67
2022/07/21 10:02:37;;;;;;;0.10;0.10;;;25.40;99.90;;;;;;4993087;28;20080;-66
2022/07/21 10:05:05;;;;;;;0.95;0.68;;;25.20;99.90;;;;;;4982635;28;20034;-66
2022/07/21 10:07:35;;;;;;;0.50;0.35;;;25.30;99.90;;;;;;4975097;28;20084;-68
2022/07/21 10:10:00;;;;;;;0.80;0.80;;;25.30;99.90;;;;;;4985028;28;20042;-67
2022/07/21 10:12:27;;;;;;;0.60;0.60;;;25.30;99.90;;;;;;4989696;28;20030;-68
2022/07/21 10:14:54;;;;;;;0.47;0.45;;;25.40;99.90;;;;;;4976805;28;20597;-68
2022/07/21 10:17:23;;;;;;;0.17;0.17;;;25.40;99.90;;;;;;4977618;28;20026;-66
2022/07/21 10:20:10;;;;;;;0.52;0.52;;;25.40;99.90;;;;;;4988803;28;20034;-69
2022/07/21 10:23:14;;;;;;;0.00;0.00;;;25.50;98.90;;;;;;4987021;28;20034;-67
2022/07/21 10:25:41;;;;;;;0.00;0.00;;;25.60;98.30;;;;;;4969204;28;20034;-67
2022/07/21 10:28:27;;;;;;;1.73;0.98;;;25.80;98.40;;;;;;4993635;28;20125;-67
2022/07/21 10:30:59;;;;;;;0.38;0.20;;;26.30;97.60;;;;;;4972886;28;21221;-67
2022/07/21 10:33:52;;;;;;;0.00;0.00;;;26.10;96.80;;;;;;4975776;28;20451;-66
2022/07/21 10:36:27;;;;;;;1.65;1.20;;;26.20;96.70;;;;;;4970494;28;20049;-67
2022/07/21 10:39:17;;;;;;;0.90;0.73;;;26.40;95.50;;;;;;4992904;28;20085;-65
2022/07/21 10:41:49;;;;;;;5.43;1.27;;;26.50;95.60;;;;;;4954728;28;20089;-67
2022/07/21 10:44:27;;;;;;;0.47;0.38;;;26.50;96.10;;;;;;4972932;28;20439;-68
2022/07/21 10:47:16;;;;;;;0.32;0.25;;;26.60;95.70;;;;;;5004091;28;20031;-66
2022/07/21 10:50:30;;;;;;;0.68;0.57;;;26.50;95.40;;;;;;4973920;28;20483;-67
2022/07/21 10:53:19;;;;;;;2.42;1.15;;;26.60;95.50;;;;;;4967611;28;20038;-68
2022/07/21 10:55:50;;;;;;;1.33;0.77;;;26.50;94.90;;;;;;4988675;28;20410;-68
2022/07/21 10:58:32;;;;;;;1.38;1.00;;;26.70;94.80;;;;;;4970192;28;20070;-67
2022/07/21 11:01:04;;;;;;;0.32;0.32;;;26.60;95.20;;;;;;4969305;28;20035;-66
2022/07/21 11:03:42;;;;;;;0.65;0.52;;;26.80;95.10;;;;;;4980295;28;20034;-67
2022/07/21 11:06:23;;;;;;;0.10;0.10;;;26.80;95.10;;;;;;4969954;28;20491;-67
2022/07/21 11:09:04;;;;;;;4.68;1.42;;;26.90;94.70;;;;;;4967538;28;20050;-67
2022/07/21 11:11:58;;;;;;;0.90;0.82;;;26.90;94.80;;;;;;4966603;28;20110;-70
2022/07/21 11:14:49;;;;;;;0.30;0.30;;;26.70;95.20;;;;;;4971975;28;20053;-68
2022/07/21 11:17:30;;;;;;;0.65;0.40;;;26.90;94.80;;;;;;4957094;28;20046;-65
2022/07/21 11:19:56;;;;;;;1.27;0.47;;;26.80;95.00;;;;;;4963701;28;20101;-67
2022/07/21 11:22:28;;;;;;;0.10;0.10;;;26.80;94.90;;;;;;4965794;28;20042;-67
2022/07/21 11:25:06;;;;;;;0.20;0.20;;;27.10;94.60;;;;;;4966546;28;20088;-67
2022/07/21 11:27:35;;;;;;;0.10;0.10;;;27.30;94.10;;;;;;4986606;28;20072;-68
2022/07/21 11:30:07;;;;;;;0.22;0.20;;;27.10;93.70;;;;;;4972629;28;20500;-64
2022/07/21 11:32:33;;;;;;;0.20;0.20;;;27.50;93.90;;;;;;4965136;28;20063;-66
2022/07/21 11:35:03;;;;;;;0.28;0.20;;;27.20;93.80;;;;;;4968091;28;20308;-68
2022/07/21 11:37:32;;;;;;;1.20;0.80;;;26.90;94.10;;;;;;4974400;28;20069;-68
2022/07/21 11:39:59;;;;;;;0.08;0.08;;;26.50;94.40;;;;;;4972974;28;20037;-66
2022/07/21 11:42:27;;;;;;;0.70;0.65;;;26.20;95.00;;;;;;4972027;28;20069;-69
2022/07/21 11:44:53;;;;;;;0.40;0.40;;;26.00;94.90;;;;;;4975262;28;20236;-69
2022/07/21 11:47:26;;;;;;;1.50;1.20;;;26.00;95.30;;;;;;4991498;28;20034;-69
2022/07/21 11:49:54;;;;;;;0.85;0.63;;;26.00;94.60;;;;;;4974204;28;20042;-69
2022/07/21 11:52:26;;;;;;;1.80;0.95;;;26.00;93.50;;;;;;4990993;28;20038;-69
2022/07/21 11:54:54;;;;;;;1.17;0.98;;;26.00;93.70;;;;;;4974968;28;20089;-69
2022/07/21 11:57:21;;;;;;;0.22;0.22;;;25.90;93.30;;;;;;4975790;28;20033;-69
2022/07/21 11:59:49;;;;;;;0.50;0.50;;;25.90;93.60;;;;;;4962850;28;20105;-69
2022/07/21 12:02:21;;;;;;;0.20;0.20;;;25.80;93.80;;;;;;4989692;28;20074;-69
2022/07/21 12:04:59;;;;;;;1.20;1.02;;;25.80;93.90;;;;;;4979133;28;20219;-69
2022/07/21 12:07:36;;;;;;;23.52;0.85;;;25.90;94.20;;;;;;4992203;28;20034;-69
2022/07/21 12:10:27;;;;;;;0.15;0.15;;;26.00;93.60;;;;;;4970832;28;20041;-69
2022/07/21 12:13:06;;;;;;;2.58;1.48;;;26.10;94.20;;;;;;4950294;28;20145;-70
2022/07/21 12:15:34;;;;;;;2.92;0.63;;;26.30;94.60;;;;;;4971499;28;20093;-70
2022/07/21 12:18:07;;;;;;;3.53;1.65;;;26.30;94.30;;;;;;4972548;28;20081;-70
2022/07/21 12:20:35;;;;;;;0.95;0.60;;;26.30;94.50;;;;;;4974422;28;20030;-71
2022/07/21 12:23:20;;;;;;;0.45;0.30;;;26.50;94.00;;;;;;4991886;28;20421;-69
2022/07/21 12:25:46;;;;;;;0.73;0.60;;;27.00;93.80;;;;;;4978093;28;20030;-69
2022/07/21 12:28:12;;;;;;;0.57;0.55;;;27.60;93.20;;;;;;4986539;28;20077;-69
2022/07/21 12:30:41;;;;;;;0.90;0.68;;;28.00;92.60;;;;;;4969896;28;20038;-69
2022/07/21 12:33:20;;;;;;;1.40;1.15;;;28.30;92.40;;;;;;4972439;28;20034;-69
2022/07/21 12:36:03;;;;;;;1.00;0.65;;;28.00;92.00;;;;;;4977496;28;20033;-69
2022/07/21 12:38:44;;;;;;;1.10;1.08;;;27.40;92.20;;;;;;4970395;28;20470;-69
2022/07/21 12:41:17;;;;;;;0.55;0.55;;;26.90;93.00;;;;;;4972293;28;20027;-70
2022/07/21 12:43:43;;;;;;;0.73;0.73;;;26.50;93.10;;;;;;4971480;28;20019;-69
2022/07/21 12:46:17;;;;;;;1.45;1.35;;;26.60;92.80;;;;;;4981819;28;20042;-70
2022/07/21 12:48:43;;;;;;;1.30;1.20;;;26.40;93.40;;;;;;4978736;28;20027;-70
2022/07/21 12:51:42;;;;;;;0.55;0.55;;;26.40;93.20;;;;;;4971256;28;20121;-70
2022/07/21 12:54:07;;;;;;;0.47;0.32;;;26.50;93.40;;;;;;4935737;28;20043;-70
2022/07/21 12:56:36;;;;;;;0.57;0.47;;;26.50;92.90;;;;;;4972390;28;20043;-69
2022/07/21 12:59:03;;;;;;;0.32;0.32;;;26.90;92.90;;;;;;4971518;28;20031;-70
2022/07/21 13:01:32;;;;;;;0.30;0.30;;;27.10;92.60;;;;;;4954248;28;20114;-70